Terminal Aerodrome Forecast
Issued by NWS

Home | Current Version | Previous Version | Text Only | Print | Product List | Glossary On
Versions: 1 2 3 4 5 6 7 8 9 10 11 12
000
FTUS45 KRIW 292339
TAFBPI
TAF
KBPI 292339Z 3000/3024 26008G15KT P6SM VCSH SCT090 BKN200
     FM300400 17008KT P6SM VCSH SCT090 BKN150
     FM301200 24011KT P6SM SCT070 BKN200
     FM301900 24017G28KT P6SM VCSH SCT060 BKN180=

USA.gov is the U.S. government's official web portal to all federal, state and local government web resources and services.